F05

Wilbarger County Airport

Vernon, Texas, USA
METAR KF05 251635Z AUTO 19012G15KT 10SM CLR 27/20 A2994 RMK AO1 T02740200
Observed Flight Rules
Sep-25 @ 16:35 UTC (28 minutes ago) Visual Flight Rules
Wind Visibility Clouds
190° at 12 knots
 Gusting to 15 knots
10 miles
  • Clear skies
Temperatures Readings
Current 27°C / 81°F
Dewpoint 20°C / 68°F
Humidity 66%
Altimeter 29.94" Hg
Pressure 1014 hPa
Elevation 386
METAR KF05 251635Z AUTO 19012G15KT 10SM CLR 27/20 A2994 RMK AO1 T02740200
Observed Flight Rules
Sep-25 @ 16:35 UTC
(28 minutes ago)
VFR
Wind Visibility
190° at 12 knots
 Gusting to 15 knots
10 miles
Clouds
  • Clear skies
Temperature Dewpoint
27°C / 81°F 20°C / 68°F
Humidity Altimeter Pressure
66% 29.94" Hg 1014 hPa